createdAt,value
2023-03-26T00:00:14.069Z,984.62
2023-03-26T00:01:14.118Z,984.65
2023-03-26T00:02:14.110Z,984.63
2023-03-26T00:03:14.084Z,984.66
2023-03-26T00:04:14.106Z,984.66
2023-03-26T00:05:14.110Z,984.64
2023-03-26T00:06:14.096Z,984.68
2023-03-26T00:07:14.069Z,984.75
2023-03-26T00:08:14.015Z,984.77
2023-03-26T00:09:14.060Z,984.82
2023-03-26T00:10:14.023Z,984.81
2023-03-26T00:11:14.000Z,984.84
2023-03-26T00:12:14.040Z,984.82
2023-03-26T00:13:13.995Z,984.86
2023-03-26T00:14:14.184Z,984.83
2023-03-26T00:15:13.999Z,984.89
2023-03-26T00:16:14.022Z,984.91
2023-03-26T00:17:13.996Z,984.89
2023-03-26T00:18:13.978Z,984.93
2023-03-26T00:19:13.986Z,984.95
2023-03-26T00:20:13.976Z,984.97
2023-03-26T00:21:13.971Z,984.99
2023-03-26T00:22:13.982Z,985.00
2023-03-26T00:23:13.970Z,985.03
2023-03-26T00:24:13.966Z,985.07
2023-03-26T00:25:13.934Z,985.09
2023-03-26T00:26:13.938Z,985.09
2023-03-26T00:27:13.975Z,985.06
2023-03-26T00:28:13.956Z,985.05
2023-03-26T00:29:14.055Z,985.21
2023-03-26T00:30:13.976Z,985.10
2023-03-26T00:31:13.958Z,985.20
2023-03-26T00:32:13.919Z,985.22
2023-03-26T00:33:13.939Z,985.23
2023-03-26T00:34:13.916Z,985.20
2023-03-26T00:35:14.928Z,985.19
2023-03-26T00:36:13.951Z,985.18
2023-03-26T00:37:13.886Z,985.20
2023-03-26T00:38:13.887Z,985.16
2023-03-26T00:39:13.921Z,985.12
2023-03-26T00:40:13.947Z,985.11
2023-03-26T00:41:13.887Z,985.10
2023-03-26T00:42:13.873Z,985.09
2023-03-26T00:43:13.893Z,985.12
2023-03-26T00:44:13.894Z,985.10
2023-03-26T00:45:13.884Z,985.10
2023-03-26T00:46:13.933Z,985.10
2023-03-26T00:47:13.845Z,985.10
2023-03-26T00:48:13.837Z,985.17
2023-03-26T00:49:13.851Z,985.25
2023-03-26T00:50:13.891Z,985.32
2023-03-26T00:51:13.817Z,985.31
2023-03-26T00:52:14.826Z,985.39
2023-03-26T00:53:13.830Z,985.34
2023-03-26T00:54:13.828Z,985.34
2023-03-26T00:55:13.825Z,985.35
2023-03-26T00:56:13.847Z,985.37
2023-03-26T00:57:18.243Z,985.31
2023-03-26T00:58:14.800Z,985.32
2023-03-26T00:59:13.794Z,985.39
2023-03-26T01:00:13.781Z,985.30
2023-03-26T01:01:13.979Z,985.25
2023-03-26T01:02:13.817Z,985.23
2023-03-26T01:03:21.809Z,985.23
2023-03-26T01:04:15.908Z,985.25
2023-03-26T01:05:13.817Z,985.16
2023-03-26T01:06:13.765Z,985.15
2023-03-26T01:07:13.796Z,985.23
2023-03-26T01:08:13.736Z,985.16
2023-03-26T01:09:13.796Z,985.10
2023-03-26T01:10:13.722Z,985.18
2023-03-26T01:11:13.756Z,985.18
2023-03-26T01:12:13.747Z,985.16
2023-03-26T01:13:13.717Z,985.16
2023-03-26T01:14:13.717Z,985.14
2023-03-26T01:15:13.699Z,985.15
2023-03-26T01:16:13.726Z,985.16
2023-03-26T01:17:14.722Z,985.06
2023-03-26T01:18:13.692Z,985.07
2023-03-26T01:19:13.696Z,985.13
2023-03-26T01:20:13.718Z,985.05
2023-03-26T01:21:13.702Z,985.07
2023-03-26T01:22:13.718Z,985.10
2023-03-26T01:23:13.689Z,985.12
2023-03-26T01:24:13.736Z,985.10
2023-03-26T01:25:13.668Z,985.02
2023-03-26T01:26:13.646Z,985.10
2023-03-26T01:27:13.690Z,985.08
2023-03-26T01:28:13.663Z,985.09
2023-03-26T01:29:13.633Z,985.06
2023-03-26T01:30:13.641Z,985.03
2023-03-26T01:31:13.630Z,985.03
2023-03-26T01:32:13.627Z,984.93
2023-03-26T01:33:13.807Z,984.89
2023-03-26T01:34:13.625Z,984.91
2023-03-26T01:35:13.655Z,984.98
2023-03-26T01:36:13.607Z,984.98
2023-03-26T01:37:13.613Z,984.91
2023-03-26T01:38:13.627Z,984.90
2023-03-26T01:39:13.580Z,984.92
2023-03-26T01:40:13.629Z,984.95
2023-03-26T01:41:13.607Z,984.92
2023-03-26T01:42:13.604Z,984.96
2023-03-26T01:43:13.574Z,984.91
2023-03-26T01:44:13.582Z,984.91
2023-03-26T01:45:13.587Z,984.84
2023-03-26T01:46:13.587Z,984.93
2023-03-26T01:47:13.566Z,984.87
2023-03-26T01:48:13.569Z,984.87
2023-03-26T01:49:13.887Z,984.87
2023-03-26T01:50:13.565Z,984.81
2023-03-26T01:51:13.527Z,984.83
2023-03-26T01:52:13.531Z,984.85
2023-03-26T01:53:13.561Z,984.85
2023-03-26T01:54:13.522Z,984.85
2023-03-26T01:55:13.518Z,984.83
2023-03-26T01:56:13.549Z,984.88
2023-03-26T01:57:13.540Z,984.78
2023-03-26T01:58:13.491Z,984.83
2023-03-26T01:59:13.511Z,984.87
2023-03-26T02:00:13.496Z,984.83
2023-03-26T02:01:13.535Z,984.86
2023-03-26T02:02:13.590Z,984.80
2023-03-26T02:03:13.616Z,984.75
2023-03-26T02:04:13.483Z,984.76
2023-03-26T02:05:13.493Z,984.79
2023-03-26T02:06:13.463Z,984.77
2023-03-26T02:07:13.495Z,984.80
2023-03-26T02:08:13.491Z,984.77
2023-03-26T02:09:13.480Z,984.73
2023-03-26T02:10:13.461Z,984.74
2023-03-26T02:11:13.488Z,984.69
2023-03-26T02:12:13.475Z,984.70
2023-03-26T02:13:13.471Z,984.70
2023-03-26T02:14:13.448Z,984.68
2023-03-26T02:15:13.414Z,984.65
2023-03-26T02:16:13.473Z,984.67
2023-03-26T02:17:13.410Z,984.72
2023-03-26T02:18:13.404Z,984.64
2023-03-26T02:19:13.412Z,984.60
2023-03-26T02:20:13.394Z,984.60
2023-03-26T02:21:13.382Z,984.59
2023-03-26T02:22:13.413Z,984.62
2023-03-26T02:23:13.382Z,984.61
2023-03-26T02:24:13.364Z,984.63
2023-03-26T02:25:13.368Z,984.62
2023-03-26T02:26:13.367Z,984.60
2023-03-26T02:27:14.410Z,984.58
2023-03-26T02:28:13.353Z,984.56
2023-03-26T02:29:13.430Z,984.55
2023-03-26T02:30:14.355Z,984.57
2023-03-26T02:31:13.377Z,984.57
2023-03-26T02:32:13.323Z,984.58
2023-03-26T02:33:13.368Z,984.55
2023-03-26T02:34:13.340Z,984.55
2023-03-26T02:35:13.398Z,984.55
2023-03-26T02:36:13.399Z,984.55
2023-03-26T02:37:13.380Z,984.54
2023-03-26T02:38:13.328Z,984.51
2023-03-26T02:39:13.294Z,984.46
2023-03-26T02:40:13.341Z,984.45
2023-03-26T02:41:13.293Z,984.48
2023-03-26T02:42:13.287Z,984.46
2023-03-26T02:43:13.280Z,984.41
2023-03-26T02:44:13.295Z,984.42
2023-03-26T02:45:13.305Z,984.44
2023-03-26T02:46:13.469Z,984.40
2023-03-26T02:47:13.289Z,984.40
2023-03-26T02:48:13.255Z,984.45
2023-03-26T02:49:13.254Z,984.36
2023-03-26T02:50:13.274Z,984.44
2023-03-26T02:51:13.228Z,984.39
2023-03-26T02:52:13.252Z,984.39
2023-03-26T02:53:13.268Z,984.44
2023-03-26T02:54:13.227Z,984.42
2023-03-26T02:55:13.246Z,984.50
2023-03-26T02:56:13.249Z,984.39
2023-03-26T02:57:13.338Z,984.41
2023-03-26T02:58:13.196Z,984.37
2023-03-26T02:59:13.201Z,984.39
2023-03-26T03:00:13.258Z,984.32
2023-03-26T03:01:13.259Z,984.31
2023-03-26T03:02:13.256Z,984.27
2023-03-26T03:03:13.240Z,984.27
2023-03-26T03:04:13.176Z,984.29
2023-03-26T03:05:13.155Z,984.27
2023-03-26T03:06:13.187Z,984.28
2023-03-26T03:07:13.154Z,984.31
2023-03-26T03:08:13.162Z,984.30
2023-03-26T03:09:13.140Z,984.23
2023-03-26T03:10:13.151Z,984.26
2023-03-26T03:11:13.171Z,984.26
2023-03-26T03:12:13.141Z,984.20
2023-03-26T03:13:13.142Z,984.20
2023-03-26T03:14:13.161Z,984.20
2023-03-26T03:15:13.124Z,984.21
2023-03-26T03:16:13.198Z,984.16
2023-03-26T03:17:13.126Z,984.20
2023-03-26T03:18:13.091Z,984.14
2023-03-26T03:19:14.135Z,984.18
2023-03-26T03:20:13.112Z,984.18
2023-03-26T03:21:13.115Z,984.17
2023-03-26T03:22:13.116Z,984.18
2023-03-26T03:23:13.118Z,984.17
2023-03-26T03:24:13.101Z,984.18
2023-03-26T03:25:13.083Z,984.12
2023-03-26T03:26:13.081Z,984.14
2023-03-26T03:27:13.065Z,984.09
2023-03-26T03:28:13.101Z,984.11
2023-03-26T03:29:13.132Z,984.10
2023-03-26T03:30:13.079Z,984.08
2023-03-26T03:31:13.077Z,984.07
2023-03-26T03:32:13.070Z,984.07
2023-03-26T03:33:13.075Z,984.10
2023-03-26T03:34:13.054Z,984.09
2023-03-26T03:35:13.037Z,984.07
2023-03-26T03:36:19.907Z,983.99
2023-03-26T03:37:14.021Z,984.02
2023-03-26T03:38:13.034Z,984.03
2023-03-26T03:39:13.049Z,984.03
2023-03-26T03:40:13.008Z,984.00
2023-03-26T03:41:13.021Z,983.95
2023-03-26T03:42:13.004Z,983.87
2023-03-26T03:43:13.023Z,983.87
2023-03-26T03:44:13.043Z,983.82
2023-03-26T03:45:12.984Z,983.81
2023-03-26T03:46:13.059Z,983.74
2023-03-26T03:47:12.977Z,983.73
2023-03-26T03:48:12.967Z,983.66
2023-03-26T03:49:13.004Z,983.64
2023-03-26T03:50:12.993Z,983.60
2023-03-26T03:51:12.966Z,983.67
2023-03-26T03:52:12.944Z,983.64
2023-03-26T03:53:12.944Z,983.66
2023-03-26T03:54:12.971Z,983.63
2023-03-26T03:55:12.985Z,983.66
2023-03-26T03:56:12.943Z,983.70
2023-03-26T03:57:12.948Z,983.71
2023-03-26T03:58:12.912Z,983.64
2023-03-26T03:59:12.948Z,983.74
2023-03-26T04:00:12.935Z,983.67
2023-03-26T04:01:12.934Z,983.73
2023-03-26T04:02:12.932Z,983.68
2023-03-26T04:03:12.957Z,983.74
2023-03-26T04:04:13.069Z,983.72
2023-03-26T04:05:12.897Z,983.65
2023-03-26T04:06:12.908Z,983.62
2023-03-26T04:07:12.874Z,983.63
2023-03-26T04:08:12.879Z,983.63
2023-03-26T04:09:12.875Z,983.64
2023-03-26T04:10:12.851Z,983.61
2023-03-26T04:11:12.879Z,983.54
2023-03-26T04:12:12.877Z,983.51
2023-03-26T04:13:12.885Z,983.56
2023-03-26T04:14:12.859Z,983.52
2023-03-26T04:15:12.838Z,983.45
2023-03-26T04:16:12.870Z,983.50
2023-03-26T04:17:12.826Z,983.50
2023-03-26T04:18:12.860Z,983.49
2023-03-26T04:19:12.806Z,983.50
2023-03-26T04:20:12.819Z,983.44
2023-03-26T04:21:12.849Z,983.42
2023-03-26T04:22:12.844Z,983.44
2023-03-26T04:23:12.799Z,983.37
2023-03-26T04:24:12.822Z,983.35
2023-03-26T04:25:12.791Z,983.35
2023-03-26T04:26:12.792Z,983.29
2023-03-26T04:27:12.778Z,983.29
2023-03-26T04:28:12.790Z,983.26
2023-03-26T04:29:12.767Z,983.29
2023-03-26T04:30:12.758Z,983.17
2023-03-26T04:31:12.821Z,983.19
2023-03-26T04:32:12.737Z,983.25
2023-03-26T04:33:12.769Z,983.19
2023-03-26T04:34:12.759Z,983.16
2023-03-26T04:35:12.733Z,983.17
2023-03-26T04:36:12.776Z,983.25
2023-03-26T04:37:12.721Z,983.20
2023-03-26T04:38:12.773Z,983.19
2023-03-26T04:39:12.722Z,983.18
2023-03-26T04:40:12.732Z,983.18
2023-03-26T04:41:12.715Z,983.18
2023-03-26T04:42:12.725Z,983.19
2023-03-26T04:43:12.679Z,983.14
2023-03-26T04:44:12.691Z,983.14
2023-03-26T04:45:12.769Z,983.15
2023-03-26T04:46:12.732Z,983.16
2023-03-26T04:47:12.666Z,983.11
2023-03-26T04:48:12.676Z,983.15
2023-03-26T04:49:12.682Z,983.15
2023-03-26T04:50:12.692Z,983.12
2023-03-26T04:51:12.669Z,983.04
2023-03-26T04:52:12.669Z,983.06
2023-03-26T04:53:12.639Z,983.04
2023-03-26T04:54:13.659Z,983.01
2023-03-26T04:55:12.642Z,982.99
2023-03-26T04:56:12.625Z,983.01
2023-03-26T04:57:12.661Z,983.00
2023-03-26T04:58:12.602Z,982.97
2023-03-26T04:59:12.606Z,983.01
2023-03-26T05:00:12.627Z,983.03
2023-03-26T05:01:12.617Z,982.94
2023-03-26T05:02:12.600Z,982.99
2023-03-26T05:03:12.595Z,982.99
2023-03-26T05:04:12.669Z,982.99
2023-03-26T05:05:12.572Z,982.92
2023-03-26T05:06:12.602Z,982.93
2023-03-26T05:07:12.609Z,982.93
2023-03-26T05:08:12.571Z,982.99
2023-03-26T05:09:12.549Z,982.97
2023-03-26T05:10:12.569Z,982.99
2023-03-26T05:11:12.561Z,982.95
2023-03-26T05:12:12.553Z,982.98
2023-03-26T05:13:12.556Z,982.95
2023-03-26T05:14:12.536Z,982.92
2023-03-26T05:15:12.541Z,982.94
2023-03-26T05:16:12.582Z,982.91
2023-03-26T05:17:12.549Z,982.88
2023-03-26T05:18:12.539Z,982.91
2023-03-26T05:19:12.525Z,982.90
2023-03-26T05:20:12.479Z,982.86
2023-03-26T05:21:12.515Z,982.90
2023-03-26T05:22:12.486Z,982.86
2023-03-26T05:23:12.535Z,982.82
2023-03-26T05:24:12.479Z,982.93
2023-03-26T05:25:12.488Z,982.88
2023-03-26T05:26:12.462Z,982.88
2023-03-26T05:27:12.449Z,982.92
2023-03-26T05:28:12.474Z,982.89
2023-03-26T05:29:12.443Z,982.88
2023-03-26T05:30:12.442Z,982.87
2023-03-26T05:31:12.429Z,982.82
2023-03-26T05:32:12.417Z,982.81
2023-03-26T05:33:12.512Z,982.81
2023-03-26T05:34:12.408Z,982.73
2023-03-26T05:35:12.398Z,982.84
2023-03-26T05:36:12.379Z,982.67
2023-03-26T05:37:13.409Z,982.76
2023-03-26T05:38:12.458Z,982.76
2023-03-26T05:39:12.412Z,982.72
2023-03-26T05:40:12.395Z,982.68
2023-03-26T05:41:12.378Z,982.71
2023-03-26T05:42:12.366Z,982.67
2023-03-26T05:43:12.377Z,982.65
2023-03-26T05:44:12.383Z,982.65
2023-03-26T05:45:12.349Z,982.65
2023-03-26T05:46:12.449Z,982.64
2023-03-26T05:47:12.337Z,982.64
2023-03-26T05:48:12.349Z,982.62
2023-03-26T05:49:12.369Z,982.60
2023-03-26T05:50:12.351Z,982.61
2023-03-26T05:51:12.386Z,982.53
2023-03-26T05:52:12.315Z,982.55
2023-03-26T05:53:12.307Z,982.49
2023-03-26T05:54:12.351Z,982.47
2023-03-26T05:55:12.308Z,982.50
2023-03-26T05:56:12.300Z,982.46
2023-03-26T05:57:12.370Z,982.48
2023-03-26T05:58:12.354Z,982.48
2023-03-26T05:59:12.313Z,982.45
2023-03-26T06:00:12.273Z,982.48
2023-03-26T06:01:12.307Z,982.48
2023-03-26T06:02:12.269Z,982.47
2023-03-26T06:03:12.372Z,982.41
2023-03-26T06:04:12.344Z,982.43
2023-03-26T06:05:12.307Z,982.45
2023-03-26T06:06:12.290Z,982.42
2023-03-26T06:07:12.285Z,982.33
2023-03-26T06:08:12.256Z,982.33
2023-03-26T06:09:12.220Z,982.31
2023-03-26T06:10:17.985Z,982.28
2023-03-26T06:11:13.282Z,982.30
2023-03-26T06:12:12.229Z,982.25
2023-03-26T06:13:12.208Z,982.27
2023-03-26T06:14:12.207Z,982.29
2023-03-26T06:15:12.203Z,982.23
2023-03-26T06:16:26.307Z,982.17
2023-03-26T06:17:13.197Z,982.17
2023-03-26T06:18:12.294Z,982.18
2023-03-26T06:19:12.263Z,982.18
2023-03-26T06:20:12.185Z,982.15
2023-03-26T06:21:12.203Z,982.14
2023-03-26T06:22:12.177Z,982.09
2023-03-26T06:23:12.184Z,982.12
2023-03-26T06:24:12.167Z,982.04
2023-03-26T06:25:12.143Z,982.09
2023-03-26T06:26:12.189Z,982.06
2023-03-26T06:27:12.184Z,982.08
2023-03-26T06:28:12.141Z,982.06
2023-03-26T06:29:12.149Z,982.08
2023-03-26T06:30:12.140Z,982.01
2023-03-26T06:31:12.193Z,982.01
2023-03-26T06:32:19.758Z,982.03
2023-03-26T06:33:14.126Z,982.05
2023-03-26T06:34:12.119Z,982.06
2023-03-26T06:35:12.123Z,982.08
2023-03-26T06:36:12.141Z,982.04
2023-03-26T06:37:12.103Z,982.06
2023-03-26T06:38:12.130Z,982.03
2023-03-26T06:39:12.115Z,982.02
2023-03-26T06:40:13.602Z,982.01
2023-03-26T06:41:12.100Z,981.98
2023-03-26T06:42:12.095Z,981.98
2023-03-26T06:43:12.119Z,981.97
2023-03-26T06:44:12.083Z,981.99
2023-03-26T06:45:12.074Z,981.98
2023-03-26T06:46:12.093Z,982.00
2023-03-26T06:47:12.069Z,981.98
2023-03-26T06:48:12.098Z,982.02
2023-03-26T06:49:12.096Z,981.96
2023-03-26T06:50:12.043Z,981.94
2023-03-26T06:51:12.065Z,981.91
2023-03-26T06:52:12.121Z,981.93
2023-03-26T06:53:12.047Z,981.91
2023-03-26T06:54:12.098Z,981.91
2023-03-26T06:55:12.066Z,981.94
2023-03-26T06:56:12.200Z,981.95
2023-03-26T06:57:12.069Z,981.96
2023-03-26T06:58:12.008Z,981.95
2023-03-26T06:59:12.038Z,981.85
2023-03-26T07:00:12.034Z,981.87
2023-03-26T07:01:12.020Z,981.82
2023-03-26T07:02:12.012Z,981.86
2023-03-26T07:03:11.977Z,981.86
2023-03-26T07:04:12.102Z,981.88
2023-03-26T07:05:12.096Z,981.85
2023-03-26T07:06:11.981Z,981.87
2023-03-26T07:07:11.983Z,981.81
2023-03-26T07:08:11.979Z,981.81
2023-03-26T07:09:11.997Z,981.78
2023-03-26T07:10:11.987Z,981.74
2023-03-26T07:11:11.961Z,981.79
2023-03-26T07:12:11.946Z,981.75
2023-03-26T07:13:11.946Z,981.78
2023-03-26T07:14:11.939Z,981.74
2023-03-26T07:15:11.958Z,981.75
2023-03-26T07:16:11.961Z,981.68
2023-03-26T07:17:11.990Z,981.73
2023-03-26T07:18:11.928Z,981.69
2023-03-26T07:19:11.938Z,981.69
2023-03-26T07:20:11.915Z,981.65
2023-03-26T07:21:11.909Z,981.63
2023-03-26T07:22:12.152Z,981.63
2023-03-26T07:23:11.901Z,981.64
2023-03-26T07:24:11.918Z,981.63
2023-03-26T07:25:11.902Z,981.60
2023-03-26T07:26:11.887Z,981.62
2023-03-26T07:27:11.890Z,981.65
2023-03-26T07:28:11.906Z,981.66
2023-03-26T07:29:11.996Z,981.67
2023-03-26T07:30:11.874Z,981.68
2023-03-26T07:31:11.898Z,981.71
2023-03-26T07:32:11.843Z,981.66
2023-03-26T07:33:11.878Z,981.64
2023-03-26T07:34:12.041Z,981.59
2023-03-26T07:35:11.837Z,981.61
2023-03-26T07:36:11.870Z,981.60
2023-03-26T07:37:11.815Z,981.59
2023-03-26T07:38:11.818Z,981.59
2023-03-26T07:39:11.806Z,981.58
2023-03-26T07:40:11.819Z,981.53
2023-03-26T07:41:11.825Z,981.55
2023-03-26T07:42:11.818Z,981.58
2023-03-26T07:43:11.791Z,981.52
2023-03-26T07:44:11.834Z,981.51
2023-03-26T07:45:11.788Z,981.51
2023-03-26T07:46:11.787Z,981.47
2023-03-26T07:47:11.788Z,981.47
2023-03-26T07:48:11.810Z,981.46
2023-03-26T07:49:11.796Z,981.46
2023-03-26T07:50:11.775Z,981.45
2023-03-26T07:51:11.755Z,981.40
2023-03-26T07:52:11.768Z,981.35
2023-03-26T07:53:11.782Z,981.35
2023-03-26T07:54:11.787Z,981.36
2023-03-26T07:55:11.750Z,981.35
2023-03-26T07:56:11.776Z,981.34
2023-03-26T07:57:11.823Z,981.37
2023-03-26T07:58:11.740Z,981.30
2023-03-26T07:59:11.777Z,981.27
2023-03-26T08:00:11.736Z,981.32
2023-03-26T08:01:11.720Z,981.29
2023-03-26T08:02:11.740Z,981.31
2023-03-26T08:03:11.909Z,981.26
2023-03-26T08:04:23.157Z,981.25
2023-03-26T08:05:12.786Z,981.20
2023-03-26T08:06:11.690Z,981.18
2023-03-26T08:07:11.674Z,981.21
2023-03-26T08:08:11.686Z,981.16
2023-03-26T08:09:11.727Z,981.18
2023-03-26T08:10:11.680Z,981.12
2023-03-26T08:11:11.681Z,981.11
2023-03-26T08:12:11.676Z,981.15
2023-03-26T08:13:11.660Z,981.12
2023-03-26T08:14:11.651Z,981.11
2023-03-26T08:15:11.667Z,981.10
2023-03-26T08:16:11.741Z,981.07
2023-03-26T08:17:11.642Z,981.11
2023-03-26T08:18:11.686Z,981.06
2023-03-26T08:19:11.650Z,981.01
2023-03-26T08:20:11.643Z,981.06
2023-03-26T08:21:11.653Z,981.03
2023-03-26T08:22:11.604Z,980.99
2023-03-26T08:23:11.605Z,981.00
2023-03-26T08:24:11.610Z,980.97
2023-03-26T08:25:11.603Z,981.00
2023-03-26T08:26:11.633Z,980.96
2023-03-26T08:27:11.605Z,980.98
2023-03-26T08:28:11.575Z,980.94
2023-03-26T08:29:11.576Z,981.00
2023-03-26T08:30:11.580Z,980.98
2023-03-26T08:31:11.612Z,980.98
2023-03-26T08:32:11.581Z,980.96
2023-03-26T08:33:11.568Z,980.94
2023-03-26T08:34:11.550Z,980.95
2023-03-26T08:35:11.529Z,980.93
2023-03-26T08:36:11.532Z,980.93
2023-03-26T08:37:11.552Z,980.93
2023-03-26T08:38:11.556Z,980.97
2023-03-26T08:39:11.534Z,980.95
2023-03-26T08:40:11.524Z,980.90
2023-03-26T08:41:11.518Z,980.89
2023-03-26T08:42:11.577Z,980.87
2023-03-26T08:43:11.531Z,980.94
2023-03-26T08:44:11.519Z,980.90
2023-03-26T08:45:11.486Z,980.91
2023-03-26T08:46:11.527Z,980.86
2023-03-26T08:47:11.511Z,980.81
2023-03-26T08:48:11.495Z,980.80
2023-03-26T08:49:11.481Z,980.79
2023-03-26T08:50:11.478Z,980.81
2023-03-26T08:51:11.464Z,980.82
2023-03-26T08:52:11.477Z,980.81
2023-03-26T08:53:11.507Z,980.77
2023-03-26T08:54:11.444Z,980.74
2023-03-26T08:55:11.435Z,980.73
2023-03-26T08:56:11.548Z,980.73
2023-03-26T08:57:11.493Z,980.73
2023-03-26T08:58:11.436Z,980.68
2023-03-26T08:59:11.449Z,980.68
2023-03-26T09:00:11.419Z,980.66
2023-03-26T09:01:11.412Z,980.66
2023-03-26T09:02:11.501Z,980.65
2023-03-26T09:03:11.476Z,980.67
2023-03-26T09:04:11.522Z,980.65
2023-03-26T09:05:11.379Z,980.66
2023-03-26T09:06:11.395Z,980.61
2023-03-26T09:07:11.371Z,980.63
2023-03-26T09:08:11.373Z,980.63
2023-03-26T09:09:19.292Z,980.62
2023-03-26T09:10:12.356Z,980.62
2023-03-26T09:11:11.367Z,980.59
2023-03-26T09:12:11.364Z,980.60
2023-03-26T09:13:11.359Z,980.60
2023-03-26T09:14:11.342Z,980.60
2023-03-26T09:15:11.377Z,980.63
2023-03-26T09:16:11.411Z,980.65
2023-03-26T09:17:11.323Z,980.61
2023-03-26T09:18:11.371Z,980.59
2023-03-26T09:19:11.311Z,980.51
2023-03-26T09:20:11.336Z,980.54
2023-03-26T09:21:11.358Z,980.52
2023-03-26T09:22:11.300Z,980.54
2023-03-26T09:23:11.971Z,980.53
2023-03-26T09:24:11.281Z,980.49
2023-03-26T09:25:11.294Z,980.51
2023-03-26T09:26:11.299Z,980.53
2023-03-26T09:27:12.312Z,980.51
2023-03-26T09:28:11.269Z,980.50
2023-03-26T09:29:11.264Z,980.44
2023-03-26T09:30:11.280Z,980.46
2023-03-26T09:31:11.306Z,980.43
2023-03-26T09:32:11.288Z,980.45
2023-03-26T09:33:11.261Z,980.43
2023-03-26T09:34:11.252Z,980.43
2023-03-26T09:35:12.627Z,980.34
2023-03-26T09:36:12.243Z,980.43
2023-03-26T09:37:11.248Z,980.35
2023-03-26T09:38:11.279Z,980.39
2023-03-26T09:39:11.224Z,980.42
2023-03-26T09:40:11.256Z,980.45
2023-03-26T09:41:11.215Z,980.48
2023-03-26T09:42:12.310Z,980.45
2023-03-26T09:43:11.252Z,980.47
2023-03-26T09:44:11.218Z,980.41
2023-03-26T09:45:11.200Z,980.49
2023-03-26T09:46:11.231Z,980.45
2023-03-26T09:47:11.175Z,980.44
2023-03-26T09:48:11.182Z,980.43
2023-03-26T09:49:11.266Z,980.41
2023-03-26T09:50:11.197Z,980.35
2023-03-26T09:51:11.157Z,980.38
2023-03-26T09:52:11.155Z,980.35
2023-03-26T09:53:11.153Z,980.36
2023-03-26T09:54:11.179Z,980.32
2023-03-26T09:55:11.133Z,980.29
2023-03-26T09:56:11.162Z,980.27
2023-03-26T09:57:11.158Z,980.29
2023-03-26T09:58:11.129Z,980.32
2023-03-26T09:59:11.137Z,980.28
2023-03-26T10:00:11.095Z,980.30
2023-03-26T10:01:11.220Z,980.30
2023-03-26T10:02:11.124Z,980.29
2023-03-26T10:03:11.112Z,980.31
2023-03-26T10:04:11.095Z,980.31
2023-03-26T10:05:11.147Z,980.28
2023-03-26T10:06:11.090Z,980.27
2023-03-26T10:07:11.071Z,980.31
2023-03-26T10:08:11.043Z,980.31
2023-03-26T10:09:11.058Z,980.26
2023-03-26T10:10:11.075Z,980.21
2023-03-26T10:11:11.085Z,980.26
2023-03-26T10:12:11.096Z,980.25
2023-03-26T10:13:14.829Z,980.28
2023-03-26T10:14:12.033Z,980.29
2023-03-26T10:15:11.038Z,980.31
2023-03-26T10:16:11.162Z,980.27
2023-03-26T10:17:11.081Z,980.25
2023-03-26T10:18:27.678Z,980.27
2023-03-26T10:19:12.003Z,980.31
2023-03-26T10:20:11.020Z,980.27
2023-03-26T10:21:11.000Z,980.26
2023-03-26T10:22:11.010Z,980.29
2023-03-26T10:23:10.997Z,980.28
2023-03-26T10:24:10.986Z,980.30
2023-03-26T10:25:10.985Z,980.31
2023-03-26T10:26:10.971Z,980.26
2023-03-26T10:27:11.156Z,980.31
2023-03-26T10:28:11.996Z,980.29
2023-03-26T10:29:10.944Z,980.28
2023-03-26T10:30:10.999Z,980.28
2023-03-26T10:31:10.986Z,980.25
2023-03-26T10:32:10.919Z,980.28
2023-03-26T10:33:11.004Z,980.26
2023-03-26T10:34:10.952Z,980.24
2023-03-26T10:35:11.935Z,980.21
2023-03-26T10:36:10.901Z,980.24
2023-03-26T10:37:10.940Z,980.17
2023-03-26T10:38:10.877Z,980.23
2023-03-26T10:39:11.928Z,980.22
2023-03-26T10:40:11.907Z,980.19
2023-03-26T10:41:10.882Z,980.18
2023-03-26T10:42:10.867Z,980.20
2023-03-26T10:43:12.466Z,980.19
2023-03-26T10:44:10.909Z,980.22
2023-03-26T10:45:10.907Z,980.14
2023-03-26T10:46:10.918Z,980.15
2023-03-26T10:47:10.831Z,980.21
2023-03-26T10:48:11.838Z,980.22
2023-03-26T10:49:10.843Z,980.21
2023-03-26T10:50:10.841Z,980.21
2023-03-26T10:51:10.874Z,980.16
2023-03-26T10:52:10.848Z,980.18
2023-03-26T10:53:10.830Z,980.16
2023-03-26T10:54:10.819Z,980.19
2023-03-26T10:55:10.857Z,980.18
2023-03-26T10:56:10.842Z,980.12
2023-03-26T10:57:10.832Z,980.23
2023-03-26T10:58:10.808Z,980.20
2023-03-26T10:59:10.804Z,980.19
2023-03-26T11:00:10.817Z,980.19
2023-03-26T11:01:10.848Z,980.25
2023-03-26T11:02:10.818Z,980.25
2023-03-26T11:03:10.814Z,980.27
2023-03-26T11:04:10.838Z,980.26
2023-03-26T11:05:10.792Z,980.26
2023-03-26T11:06:10.768Z,980.31
2023-03-26T11:07:10.797Z,980.23
2023-03-26T11:08:10.776Z,980.32
2023-03-26T11:09:10.766Z,980.28
2023-03-26T11:10:10.753Z,980.26
2023-03-26T11:11:10.736Z,980.27
2023-03-26T11:12:26.180Z,980.25
2023-03-26T11:13:11.734Z,980.28
2023-03-26T11:14:10.802Z,980.31
2023-03-26T11:15:10.731Z,980.22
2023-03-26T11:16:10.773Z,980.30
2023-03-26T11:17:14.738Z,980.28
2023-03-26T11:18:11.724Z,980.28
2023-03-26T11:19:10.701Z,980.30
2023-03-26T11:20:10.716Z,980.26
2023-03-26T11:21:19.340Z,980.29
2023-03-26T11:22:11.740Z,980.28
2023-03-26T11:23:10.734Z,980.26
2023-03-26T11:24:10.753Z,980.27
2023-03-26T11:25:10.703Z,980.27
2023-03-26T11:26:10.686Z,980.27
2023-03-26T11:28:12.894Z,980.21
2023-03-26T11:29:32.619Z,980.24
2023-03-26T11:30:11.654Z,980.23
2023-03-26T11:31:10.694Z,980.15
2023-03-26T11:32:10.667Z,980.21
2023-03-26T11:33:10.681Z,980.15
2023-03-26T11:34:10.640Z,980.16
2023-03-26T11:34:36.567Z,980.28
2023-03-26T11:35:10.683Z,980.18
2023-03-26T11:36:10.666Z,980.11
2023-03-26T11:37:10.615Z,980.11
2023-03-26T11:38:10.597Z,980.11
2023-03-26T11:39:10.679Z,980.12
2023-03-26T11:40:10.699Z,980.12
2023-03-26T11:41:10.589Z,980.07
2023-03-26T11:42:10.588Z,980.06
2023-03-26T11:43:10.587Z,980.04
2023-03-26T11:44:10.612Z,980.09
2023-03-26T11:45:10.586Z,980.08
2023-03-26T11:46:10.605Z,979.99
2023-03-26T11:47:10.623Z,979.95
2023-03-26T11:48:10.564Z,979.91
2023-03-26T11:49:10.631Z,979.92
2023-03-26T11:50:10.575Z,979.92
2023-03-26T11:51:10.582Z,979.94
2023-03-26T11:52:10.551Z,979.89
2023-03-26T11:53:10.539Z,979.89
2023-03-26T11:54:10.579Z,979.83
2023-03-26T11:55:10.533Z,979.84
2023-03-26T11:56:10.536Z,979.79
2023-03-26T11:57:10.577Z,979.77
2023-03-26T11:58:11.221Z,979.71
2023-03-26T11:59:10.510Z,979.66
2023-03-26T12:00:10.525Z,979.65
2023-03-26T12:01:10.558Z,979.68
2023-03-26T12:02:10.551Z,979.71
2023-03-26T12:03:10.562Z,979.72
2023-03-26T12:04:10.505Z,979.69
2023-03-26T12:05:10.484Z,979.67
2023-03-26T12:06:10.489Z,979.67
2023-03-26T12:07:10.494Z,979.67
2023-03-26T12:08:10.477Z,979.66
2023-03-26T12:09:10.465Z,979.64
2023-03-26T12:10:19.013Z,979.67
2023-03-26T12:11:11.457Z,979.64
2023-03-26T12:12:10.462Z,979.57
2023-03-26T12:13:10.512Z,979.56
2023-03-26T12:14:10.436Z,979.57
2023-03-26T12:15:10.440Z,979.53
2023-03-26T12:16:10.525Z,979.55
2023-03-26T12:17:10.419Z,979.52
2023-03-26T12:18:10.492Z,979.52
2023-03-26T12:19:11.427Z,979.48
2023-03-26T12:20:10.410Z,979.52
2023-03-26T12:21:10.431Z,979.52
2023-03-26T12:22:10.391Z,979.50
2023-03-26T12:23:10.430Z,979.47
2023-03-26T12:24:10.393Z,979.53
2023-03-26T12:25:10.386Z,979.50
2023-03-26T12:26:10.371Z,979.53
2023-03-26T12:27:10.398Z,979.45
2023-03-26T12:28:10.365Z,979.48